Time;durP1;ratioP1;P1;durP2;ratioP2;P2;SDS_P1;SDS_P2;PMS_P1;PMS_P2;Temp;Humidity;BMP_temperature;BMP_pressure;BME280_temperature;BME280_humidity;BME280_pressure;Samples;Min_cycle;Max_cycle;Signal;HPM_P1;HPM_P2
2023/06/26 00:02:07;;;;;;;9.80;7.38;;;;;;;;;;5071205;28;20218;-60
2023/06/26 00:04:33;;;;;;;9.82;7.82;;;;;;;;;;5070690;28;20356;-60
2023/06/26 00:06:58;;;;;;;9.93;7.28;;;;;;;;;;5071598;28;20222;-60
2023/06/26 00:09:23;;;;;;;8.85;7.65;;;;;;;;;;5058787;28;20672;-60
2023/06/26 00:11:49;;;;;;;9.05;7.22;;;;;;;;;;5050917;28;20229;-60
2023/06/26 00:14:14;;;;;;;8.95;7.03;;;;;;;;;;5051315;28;20754;-60
2023/06/26 00:16:39;;;;;;;8.35;7.55;;;;;;;;;;5051370;28;20210;-60
2023/06/26 00:19:05;;;;;;;8.57;7.47;;;;;;;;;;5050393;28;20219;-60
2023/06/26 00:21:30;;;;;;;11.93;8.18;;;;;;;;;;5051717;28;20211;-60
2023/06/26 00:23:55;;;;;;;10.77;7.45;;;;;;;;;;5051456;28;20219;-60
2023/06/26 00:26:21;;;;;;;8.50;7.57;;;;;;;;;;5050177;28;20223;-60
2023/06/26 00:28:46;;;;;;;9.02;7.55;;;;;;;;;;5051604;28;20572;-60
2023/06/26 00:31:11;;;;;;;11.05;8.05;;;;;;;;;;5050961;28;20242;-60
2023/06/26 00:33:37;;;;;;;9.77;7.80;;;;;;;;;;5050682;28;20224;-60
2023/06/26 00:36:02;;;;;;;11.23;7.95;;;;;;;;;;5051203;28;20550;-60
2023/06/26 00:38:27;;;;;;;8.52;7.60;;;;;;;;;;5051210;28;20646;-60
2023/06/26 00:40:54;;;;;;;8.88;7.80;;;;;;;;;;5050681;28;20226;-60
2023/06/26 00:43:19;;;;;;;9.82;7.70;;;;;;;;;;5050927;28;20277;-60
2023/06/26 00:45:45;;;;;;;10.93;7.65;;;;;;;;;;5054441;28;20689;-60
2023/06/26 00:48:11;;;;;;;9.88;7.45;;;;;;;;;;5050038;28;20650;-60
2023/06/26 00:50:37;;;;;;;9.18;6.97;;;;;;;;;;5051407;28;20207;-60
2023/06/26 00:53:02;;;;;;;8.93;7.13;;;;;;;;;;5049966;28;20265;-60
2023/06/26 00:55:28;;;;;;;8.60;7.70;;;;;;;;;;5061494;28;20210;-60
2023/06/26 00:57:54;;;;;;;8.98;7.82;;;;;;;;;;5057329;28;20263;-60
2023/06/26 01:00:20;;;;;;;8.90;8.00;;;;;;;;;;5074017;28;20214;-60
2023/06/26 01:02:46;;;;;;;10.43;8.13;;;;;;;;;;5074811;28;20223;-60
2023/06/26 01:05:12;;;;;;;9.15;7.85;;;;;;;;;;5074536;28;20222;-60
2023/06/26 01:07:38;;;;;;;9.23;7.53;;;;;;;;;;5056407;28;20725;-60
2023/06/26 01:10:04;;;;;;;9.48;8.00;;;;;;;;;;5056681;28;20702;-60
2023/06/26 01:12:31;;;;;;;9.25;7.95;;;;;;;;;;5055112;28;20222;-60
2023/06/26 01:14:56;;;;;;;9.52;7.68;;;;;;;;;;5036441;28;20195;-60
2023/06/26 01:17:23;;;;;;;8.82;7.78;;;;;;;;;;5036473;28;20215;-60
2023/06/26 01:19:49;;;;;;;8.60;7.70;;;;;;;;;;5054935;28;20568;-60
2023/06/26 01:22:15;;;;;;;9.05;7.85;;;;;;;;;;5053455;28;20591;-60
2023/06/26 01:24:45;;;;;;;9.75;7.75;;;;;;;;;;5054863;28;20212;-60
2023/06/26 01:27:11;;;;;;;8.38;7.47;;;;;;;;;;5036312;28;20226;-60
2023/06/26 01:29:36;;;;;;;9.32;8.32;;;;;;;;;;5036396;28;20219;-60
2023/06/26 01:32:01;;;;;;;10.23;7.72;;;;;;;;;;5054087;28;20686;-60
2023/06/26 01:34:27;;;;;;;12.38;8.45;;;;;;;;;;5054548;28;20215;-60
2023/06/26 01:36:52;;;;;;;9.77;7.80;;;;;;;;;;5053647;28;20361;-60
2023/06/26 01:39:18;;;;;;;8.63;7.72;;;;;;;;;;5054036;28;20215;-60
2023/06/26 01:41:43;;;;;;;8.80;7.80;;;;;;;;;;5054342;28;20203;-60
2023/06/26 01:44:11;;;;;;;9.23;7.85;;;;;;;;;;5053204;28;20211;-60
2023/06/26 01:46:38;;;;;;;9.93;7.78;;;;;;;;;;5057351;28;20318;-60
2023/06/26 01:49:06;;;;;;;11.98;8.43;;;;;;;;;;5053785;28;20670;-60
2023/06/26 01:51:33;;;;;;;10.38;7.75;;;;;;;;;;5053641;28;20319;-60
2023/06/26 01:53:58;;;;;;;11.05;7.80;;;;;;;;;;5036434;28;20253;-60
2023/06/26 01:56:24;;;;;;;8.80;7.63;;;;;;;;;;5066961;28;20218;-60
2023/06/26 01:58:49;;;;;;;9.40;8.02;;;;;;;;;;5056190;28;20585;-60
2023/06/26 02:01:14;;;;;;;10.07;8.45;;;;;;;;;;5073501;28;20210;-60
2023/06/26 02:03:40;;;;;;;8.93;7.78;;;;;;;;;;5072844;28;20222;-60
2023/06/26 02:06:05;;;;;;;11.45;8.68;;;;;;;;;;5072282;28;20233;-60
2023/06/26 02:08:30;;;;;;;9.23;8.23;;;;;;;;;;5069228;28;20712;-60
2023/06/26 02:10:56;;;;;;;11.60;9.05;;;;;;;;;;5053132;28;20623;-60
2023/06/26 02:13:21;;;;;;;10.88;9.50;;;;;;;;;;5053298;28;20306;-60
2023/06/26 02:15:46;;;;;;;11.38;9.45;;;;;;;;;;5053585;28;20658;-60
2023/06/26 02:18:12;;;;;;;10.57;9.15;;;;;;;;;;5052369;28;20223;-60
2023/06/26 02:20:37;;;;;;;12.60;10.30;;;;;;;;;;5053749;28;20214;-60
2023/06/26 02:23:02;;;;;;;10.93;9.82;;;;;;;;;;5053252;28;20753;-60
2023/06/26 02:25:28;;;;;;;10.40;9.30;;;;;;;;;;5052600;28;20219;-60
2023/06/26 02:27:53;;;;;;;11.18;9.55;;;;;;;;;;5053347;28;20215;-59
2023/06/26 02:30:18;;;;;;;12.80;8.77;;;;;;;;;;5053184;28;20298;-60
2023/06/26 02:32:45;;;;;;;12.55;8.80;;;;;;;;;;5052686;28;20217;-60
2023/06/26 02:35:10;;;;;;;9.93;7.53;;;;;;;;;;5052786;28;20285;-60
2023/06/26 02:37:35;;;;;;;10.90;7.50;;;;;;;;;;5053323;28;20655;-60
2023/06/26 02:40:00;;;;;;;9.77;7.00;;;;;;;;;;5052163;28;20223;-60
2023/06/26 02:42:26;;;;;;;10.50;6.63;;;;;;;;;;5053268;28;20219;-60
2023/06/26 02:44:51;;;;;;;9.75;6.82;;;;;;;;;;5053745;28;20207;-60
2023/06/26 02:47:17;;;;;;;11.35;6.07;;;;;;;;;;5054324;28;20219;-60
2023/06/26 02:49:42;;;;;;;8.57;5.40;;;;;;;;;;5052992;28;20211;-60
2023/06/26 02:52:07;;;;;;;6.75;5.53;;;;;;;;;;5052704;28;20212;-60
2023/06/26 02:54:33;;;;;;;9.57;5.70;;;;;;;;;;5052395;28;20234;-60
2023/06/26 02:56:59;;;;;;;10.38;5.82;;;;;;;;;;5071697;28;20210;-60
2023/06/26 02:59:24;;;;;;;10.70;5.63;;;;;;;;;;5072509;28;20210;-60
2023/06/26 03:01:50;;;;;;;8.90;5.28;;;;;;;;;;5072171;28;20689;-60
2023/06/26 03:04:17;;;;;;;10.30;4.85;;;;;;;;;;5071913;28;20693;-60
2023/06/26 03:06:43;;;;;;;8.07;5.32;;;;;;;;;;5071945;28;20222;-59
2023/06/26 03:09:08;;;;;;;8.75;5.35;;;;;;;;;;5062356;28;20207;-59
2023/06/26 03:11:33;;;;;;;11.27;5.00;;;;;;;;;;5052867;28;20211;-60
2023/06/26 03:13:58;;;;;;;9.70;4.88;;;;;;;;;;5051754;28;20206;-59
2023/06/26 03:16:24;;;;;;;7.30;4.55;;;;;;;;;;5051851;28;20294;-60
2023/06/26 03:18:49;;;;;;;13.40;5.22;;;;;;;;;;5055647;28;20202;-60
2023/06/26 03:21:15;;;;;;;8.73;5.00;;;;;;;;;;5071174;28;20214;-60
2023/06/26 03:23:40;;;;;;;7.53;4.82;;;;;;;;;;5072372;28;20219;-59
2023/06/26 03:26:05;;;;;;;7.93;4.80;;;;;;;;;;5071692;28;20219;-60
2023/06/26 03:28:31;;;;;;;9.82;4.95;;;;;;;;;;5071415;28;20218;-60
2023/06/26 03:30:56;;;;;;;11.63;4.60;;;;;;;;;;5072443;28;20609;-60
2023/06/26 03:33:22;;;;;;;8.65;4.78;;;;;;;;;;5071704;28;20219;-60
2023/06/26 03:35:47;;;;;;;9.52;4.68;;;;;;;;;;5071152;28;20268;-60
2023/06/26 03:38:12;;;;;;;15.05;5.65;;;;;;;;;;5071583;28;20215;-60
2023/06/26 03:40:37;;;;;;;9.65;4.88;;;;;;;;;;5072272;28;20217;-59
2023/06/26 03:43:03;;;;;;;10.15;4.95;;;;;;;;;;5070807;28;20673;-60
2023/06/26 03:45:28;;;;;;;9.32;5.22;;;;;;;;;;5066194;28;20215;-59
2023/06/26 03:47:54;;;;;;;11.18;5.05;;;;;;;;;;5052058;28;20215;-60
2023/06/26 03:50:19;;;;;;;8.80;4.68;;;;;;;;;;5050554;28;20226;-60
2023/06/26 03:52:45;;;;;;;10.00;4.57;;;;;;;;;;5052011;28;20306;-59
2023/06/26 03:55:10;;;;;;;10.23;4.70;;;;;;;;;;5055263;28;20293;-60
2023/06/26 03:57:35;;;;;;;10.38;4.35;;;;;;;;;;5071143;28;20221;-59
2023/06/26 04:00:01;;;;;;;11.25;5.25;;;;;;;;;;5071410;28;20218;-59
2023/06/26 04:02:26;;;;;;;8.90;4.25;;;;;;;;;;5071603;28;20218;-60
2023/06/26 04:04:52;;;;;;;11.35;4.95;;;;;;;;;;5070630;28;20215;-60
2023/06/26 04:07:17;;;;;;;12.95;5.05;;;;;;;;;;5071087;28;20215;-60
2023/06/26 04:09:43;;;;;;;11.27;5.30;;;;;;;;;;5057168;28;20624;-59
2023/06/26 04:12:08;;;;;;;11.70;4.93;;;;;;;;;;5050706;28;20221;-60
2023/06/26 04:14:33;;;;;;;14.82;5.07;;;;;;;;;;5051478;28;20239;-60
2023/06/26 04:17:01;;;;;;;13.90;5.53;;;;;;;;;;5050884;28;20211;-59
2023/06/26 04:19:26;;;;;;;13.88;5.22;;;;;;;;;;5051330;28;20260;-60
2023/06/26 04:21:52;;;;;;;12.77;5.18;;;;;;;;;;5051517;28;20214;-59
2023/06/26 04:24:17;;;;;;;14.57;5.35;;;;;;;;;;5050362;28;20210;-60
2023/06/26 04:26:42;;;;;;;16.15;5.47;;;;;;;;;;5051513;28;20326;-60
2023/06/26 04:29:08;;;;;;;14.18;5.15;;;;;;;;;;5050549;28;20702;-59
2023/06/26 04:31:34;;;;;;;13.32;5.07;;;;;;;;;;5046758;28;20848;-59
2023/06/26 04:33:59;;;;;;;15.30;5.25;;;;;;;;;;5047912;28;20202;-60
2023/06/26 04:36:28;;;;;;;15.88;5.05;;;;;;;;;;5053046;28;20241;-59
2023/06/26 04:38:54;;;;;;;14.23;5.55;;;;;;;;;;5059195;28;20260;-60
2023/06/26 04:41:19;;;;;;;11.52;5.05;;;;;;;;;;5040199;28;20252;-59
2023/06/26 04:43:45;;;;;;;15.63;5.68;;;;;;;;;;5033369;28;20644;-60
2023/06/26 04:46:10;;;;;;;15.45;5.50;;;;;;;;;;5033395;28;20743;-60
2023/06/26 04:48:35;;;;;;;13.52;5.53;;;;;;;;;;5058195;28;20222;-60
2023/06/26 04:51:01;;;;;;;15.80;5.63;;;;;;;;;;5050674;28;20309;-60
2023/06/26 04:53:26;;;;;;;14.52;5.72;;;;;;;;;;5060178;28;20684;-60
2023/06/26 04:55:52;;;;;;;16.10;5.35;;;;;;;;;;5057402;28;20222;-60
2023/06/26 04:58:17;;;;;;;15.68;5.25;;;;;;;;;;5050971;28;20319;-59
2023/06/26 05:00:43;;;;;;;14.45;5.85;;;;;;;;;;5040289;28;20220;-59
2023/06/26 05:03:10;;;;;;;15.13;5.38;;;;;;;;;;5034503;28;20223;-60
2023/06/26 05:05:35;;;;;;;15.75;5.78;;;;;;;;;;5046619;28;20226;-60
2023/06/26 05:08:01;;;;;;;14.32;6.10;;;;;;;;;;5051008;28;20331;-60
2023/06/26 05:10:27;;;;;;;14.13;5.55;;;;;;;;;;5039593;28;20747;-59
2023/06/26 05:12:52;;;;;;;13.60;5.07;;;;;;;;;;5041239;28;20223;-59
2023/06/26 05:15:17;;;;;;;20.10;6.00;;;;;;;;;;5039718;28;20420;-60
2023/06/26 05:17:43;;;;;;;21.98;6.28;;;;;;;;;;5047636;28;20686;-59
2023/06/26 05:20:09;;;;;;;16.10;5.53;;;;;;;;;;5040713;28;20215;-59
2023/06/26 05:22:35;;;;;;;16.75;5.38;;;;;;;;;;5059716;28;20215;-59
2023/06/26 05:25:00;;;;;;;15.82;5.28;;;;;;;;;;5039006;28;20828;-59
2023/06/26 05:27:26;;;;;;;18.58;5.70;;;;;;;;;;5034871;28;20215;-59
2023/06/26 05:29:51;;;;;;;14.07;5.32;;;;;;;;;;5032659;28;20225;-59
2023/06/26 05:32:18;;;;;;;14.18;5.30;;;;;;;;;;5035901;28;20564;-59
2023/06/26 05:34:45;;;;;;;13.85;5.53;;;;;;;;;;5059510;28;20659;-59
2023/06/26 05:37:11;;;;;;;16.55;5.22;;;;;;;;;;5041720;28;20276;-59
2023/06/26 05:39:36;;;;;;;12.52;5.10;;;;;;;;;;5041748;28;20218;-59
2023/06/26 05:42:03;;;;;;;14.70;5.07;;;;;;;;;;5039645;28;20261;-60
2023/06/26 05:44:28;;;;;;;13.88;5.28;;;;;;;;;;5062731;28;20218;-59
2023/06/26 05:46:53;;;;;;;13.20;5.22;;;;;;;;;;5045396;28;20219;-60
2023/06/26 05:49:19;;;;;;;14.67;5.73;;;;;;;;;;5034397;28;20432;-60
2023/06/26 05:51:44;;;;;;;12.90;5.10;;;;;;;;;;5037536;28;21082;-59
2023/06/26 05:54:11;;;;;;;13.82;5.35;;;;;;;;;;5056882;28;20240;-61
2023/06/26 05:56:37;;;;;;;12.20;5.05;;;;;;;;;;5048820;28;20227;-61
2023/06/26 05:59:02;;;;;;;11.95;4.80;;;;;;;;;;5049426;28;20264;-61
2023/06/26 06:01:27;;;;;;;10.82;5.03;;;;;;;;;;5045491;28;20241;-61
2023/06/26 06:03:53;;;;;;;12.65;5.00;;;;;;;;;;5062716;28;20550;-60
2023/06/26 06:06:18;;;;;;;11.80;4.40;;;;;;;;;;5068061;28;20298;-60
2023/06/26 06:08:44;;;;;;;10.10;4.53;;;;;;;;;;5063977;28;20218;-60
2023/06/26 06:11:09;;;;;;;11.65;4.55;;;;;;;;;;5063938;28;20206;-60
2023/06/26 06:13:34;;;;;;;11.95;4.57;;;;;;;;;;5073921;28;20222;-60
2023/06/26 06:16:00;;;;;;;12.88;5.07;;;;;;;;;;5060721;28;20222;-60
2023/06/26 06:18:25;;;;;;;10.02;3.97;;;;;;;;;;5059956;28;20234;-61
2023/06/26 06:20:51;;;;;;;12.00;4.05;;;;;;;;;;5036185;28;20230;-60
2023/06/26 06:23:16;;;;;;;10.00;3.90;;;;;;;;;;5053100;28;20572;-61
2023/06/26 06:25:41;;;;;;;9.15;3.90;;;;;;;;;;5052756;28;20226;-60
2023/06/26 06:28:07;;;;;;;9.15;3.83;;;;;;;;;;5053081;28;20242;-61
2023/06/26 06:30:32;;;;;;;10.30;4.18;;;;;;;;;;5053038;28;20214;-60
2023/06/26 06:32:57;;;;;;;9.43;3.58;;;;;;;;;;5053127;28;20739;-60
2023/06/26 06:35:23;;;;;;;9.13;3.90;;;;;;;;;;5047862;28;20298;-60
2023/06/26 06:37:48;;;;;;;8.80;3.63;;;;;;;;;;5052420;28;20656;-60
2023/06/26 06:40:14;;;;;;;9.90;3.95;;;;;;;;;;5052777;28;20207;-61
2023/06/26 06:42:40;;;;;;;9.85;3.60;;;;;;;;;;5053372;28;20264;-60
2023/06/26 06:45:05;;;;;;;8.68;3.30;;;;;;;;;;5053490;28;20211;-61
2023/06/26 06:47:32;;;;;;;9.52;3.45;;;;;;;;;;5072892;28;20575;-60
2023/06/26 06:49:57;;;;;;;11.05;3.20;;;;;;;;;;5054959;28;20271;-60
2023/06/26 06:52:22;;;;;;;6.63;3.30;;;;;;;;;;5071453;28;20206;-60
2023/06/26 06:54:52;;;;;;;7.30;3.30;;;;;;;;;;5071900;28;20214;-60
2023/06/26 06:57:17;;;;;;;8.60;3.20;;;;;;;;;;5052412;28;20218;-60
2023/06/26 06:59:43;;;;;;;8.82;3.00;;;;;;;;;;5052149;28;20215;-60
2023/06/26 07:02:08;;;;;;;10.30;3.10;;;;;;;;;;5052254;28;20219;-62
2023/06/26 07:04:33;;;;;;;8.60;3.15;;;;;;;;;;5052074;28;20310;-62
2023/06/26 07:06:59;;;;;;;9.20;3.22;;;;;;;;;;5055326;28;20624;-62
2023/06/26 07:09:24;;;;;;;10.30;3.10;;;;;;;;;;5062333;28;20214;-63
2023/06/26 07:11:49;;;;;;;6.40;2.78;;;;;;;;;;5052686;28;20217;-61
2023/06/26 07:14:15;;;;;;;6.25;2.70;;;;;;;;;;5059312;28;20233;-61
2023/06/26 07:16:40;;;;;;;7.05;2.90;;;;;;;;;;5056039;28;20206;-61
2023/06/26 07:19:06;;;;;;;7.13;2.63;;;;;;;;;;5051461;28;20237;-61
2023/06/26 07:21:31;;;;;;;6.95;2.72;;;;;;;;;;5051718;28;20210;-61
2023/06/26 07:23:56;;;;;;;7.50;2.50;;;;;;;;;;5052438;28;20233;-61
2023/06/26 07:26:22;;;;;;;8.52;2.92;;;;;;;;;;5051752;28;20231;-61
2023/06/26 07:28:48;;;;;;;5.90;3.03;;;;;;;;;;5051497;28;20258;-61
2023/06/26 07:31:14;;;;;;;6.63;2.80;;;;;;;;;;5033990;28;20535;-60
2023/06/26 07:33:40;;;;;;;6.10;2.92;;;;;;;;;;5051698;28;20217;-61
2023/06/26 07:36:05;;;;;;;7.30;3.10;;;;;;;;;;5050886;28;20302;-61
2023/06/26 07:38:30;;;;;;;10.43;3.20;;;;;;;;;;5052275;28;20298;-61
2023/06/26 07:40:56;;;;;;;4.75;2.80;;;;;;;;;;5051178;28;20294;-61
2023/06/26 07:43:22;;;;;;;8.02;3.15;;;;;;;;;;5051589;28;20795;-60
2023/06/26 07:45:48;;;;;;;6.80;2.70;;;;;;;;;;5051875;28;20230;-60
2023/06/26 07:48:13;;;;;;;4.68;2.50;;;;;;;;;;5050313;28;20635;-61
2023/06/26 07:50:38;;;;;;;6.32;2.40;;;;;;;;;;5051873;28;20686;-61
2023/06/26 07:53:05;;;;;;;6.15;2.42;;;;;;;;;;5051414;28;20257;-61
2023/06/26 07:55:31;;;;;;;6.72;2.78;;;;;;;;;;5057764;28;20215;-61
2023/06/26 07:57:57;;;;;;;7.25;2.38;;;;;;;;;;5071765;28;20268;-61
2023/06/26 08:00:22;;;;;;;11.05;3.83;;;;;;;;;;5071336;28;20293;-60
2023/06/26 08:02:47;;;;;;;10.48;3.58;;;;;;;;;;5070554;28;20317;-61
2023/06/26 08:05:13;;;;;;;7.45;2.80;;;;;;;;;;5070214;28;20237;-61
2023/06/26 08:07:39;;;;;;;7.15;2.90;;;;;;;;;;5071983;28;20224;-60
2023/06/26 08:10:04;;;;;;;8.93;3.03;;;;;;;;;;5070010;28;20739;-60
2023/06/26 08:12:30;;;;;;;8.23;2.90;;;;;;;;;;5071539;28;20210;-60
2023/06/26 08:14:55;;;;;;;6.28;2.63;;;;;;;;;;5066600;28;20219;-61
2023/06/26 08:17:20;;;;;;;6.57;3.20;;;;;;;;;;5056285;28;20214;-61
2023/06/26 08:19:46;;;;;;;6.60;2.50;;;;;;;;;;5071086;28;20206;-61
2023/06/26 08:22:11;;;;;;;7.13;2.65;;;;;;;;;;5071181;28;20297;-61
2023/06/26 08:24:36;;;;;;;4.53;2.40;;;;;;;;;;5070772;28;20305;-61
2023/06/26 08:27:03;;;;;;;7.32;3.25;;;;;;;;;;5070837;28;20222;-60
2023/06/26 08:29:28;;;;;;;7.72;2.78;;;;;;;;;;5071576;28;20214;-61
2023/06/26 08:31:54;;;;;;;6.75;2.95;;;;;;;;;;5070610;28;20302;-61
2023/06/26 08:34:19;;;;;;;8.27;2.45;;;;;;;;;;5070631;28;20343;-61
2023/06/26 08:36:44;;;;;;;7.07;2.55;;;;;;;;;;5071254;28;20207;-62
2023/06/26 08:39:10;;;;;;;8.18;2.60;;;;;;;;;;5069823;28;20210;-61
2023/06/26 08:41:36;;;;;;;6.97;2.70;;;;;;;;;;5071239;28;20216;-60
2023/06/26 08:44:02;;;;;;;5.38;2.78;;;;;;;;;;5052229;28;20222;-61
2023/06/26 08:46:28;;;;;;;7.25;2.90;;;;;;;;;;5050698;28;20230;-60
2023/06/26 08:48:56;;;;;;;7.78;2.60;;;;;;;;;;5032355;28;20219;-60
2023/06/26 08:51:24;;;;;;;6.78;2.47;;;;;;;;;;5029925;28;20596;-60
2023/06/26 08:53:50;;;;;;;7.10;2.85;;;;;;;;;;5051413;28;20256;-60
2023/06/26 08:56:17;;;;;;;7.93;3.00;;;;;;;;;;5033750;28;20299;-61
2023/06/26 08:58:42;;;;;;;6.15;2.85;;;;;;;;;;5049734;28;20686;-61
2023/06/26 09:01:08;;;;;;;5.50;2.70;;;;;;;;;;5067698;28;20213;-60
2023/06/26 09:03:33;;;;;;;9.73;3.15;;;;;;;;;;5070785;28;20244;-60
2023/06/26 09:05:59;;;;;;;9.80;3.28;;;;;;;;;;5070305;28;20233;-60
2023/06/26 09:08:24;;;;;;;5.93;2.80;;;;;;;;;;5066870;28;20703;-60
2023/06/26 09:10:49;;;;;;;7.28;2.33;;;;;;;;;;5051186;28;20299;-60
2023/06/26 09:13:15;;;;;;;6.53;2.55;;;;;;;;;;5049746;28;20209;-61
2023/06/26 09:15:46;;;;;;;6.18;2.30;;;;;;;;;;5053524;28;20223;-60
2023/06/26 09:18:12;;;;;;;8.60;2.42;;;;;;;;;;5057012;28;20290;-61
2023/06/26 09:20:37;;;;;;;6.60;2.50;;;;;;;;;;5054261;28;20378;-60
2023/06/26 09:23:02;;;;;;;7.32;2.60;;;;;;;;;;5054279;28;20313;-60
2023/06/26 09:25:28;;;;;;;5.15;2.30;;;;;;;;;;5036891;28;20262;-61
2023/06/26 09:27:53;;;;;;;7.30;2.40;;;;;;;;;;5053690;28;20678;-60
2023/06/26 09:30:19;;;;;;;8.38;2.70;;;;;;;;;;5054347;28;20219;-61
2023/06/26 09:32:44;;;;;;;5.78;2.00;;;;;;;;;;5054527;28;20664;-60
2023/06/26 09:35:10;;;;;;;6.20;2.00;;;;;;;;;;5053226;28;20211;-61
2023/06/26 09:37:35;;;;;;;5.47;2.03;;;;;;;;;;5036690;28;20294;-61
2023/06/26 09:40:00;;;;;;;5.53;1.85;;;;;;;;;;5053996;28;20211;-61
2023/06/26 09:42:26;;;;;;;6.15;1.77;;;;;;;;;;5053630;28;20304;-60
2023/06/26 09:44:51;;;;;;;6.72;1.77;;;;;;;;;;5054443;28;20235;-60
2023/06/26 09:47:17;;;;;;;6.25;1.90;;;;;;;;;;5053419;28;20281;-61
2023/06/26 09:49:43;;;;;;;4.40;1.73;;;;;;;;;;5053764;28;20276;-61
2023/06/26 09:52:08;;;;;;;8.13;1.75;;;;;;;;;;5059434;28;20203;-61
2023/06/26 09:54:35;;;;;;;9.50;1.55;;;;;;;;;;5052878;28;20214;-61
2023/06/26 09:57:07;;;;;;;7.22;2.17;;;;;;;;;;5072832;28;20206;-61
2023/06/26 09:59:33;;;;;;;6.60;1.75;;;;;;;;;;5074105;28;20234;-61
2023/06/26 10:01:58;;;;;;;11.65;3.28;;;;;;;;;;5073390;28;20210;-60
2023/06/26 10:04:24;;;;;;;13.07;3.40;;;;;;;;;;5073073;28;20561;-61
2023/06/26 10:06:49;;;;;;;5.60;1.65;;;;;;;;;;5073747;28;20305;-60
2023/06/26 10:09:16;;;;;;;5.18;1.40;;;;;;;;;;5043983;28;20207;-60
2023/06/26 10:11:47;;;;;;;7.63;1.55;;;;;;;;;;5054064;28;20215;-60
2023/06/26 10:14:12;;;;;;;5.88;1.30;;;;;;;;;;5053267;28;20303;-60
2023/06/26 10:16:37;;;;;;;5.60;1.58;;;;;;;;;;5033856;28;20286;-60
2023/06/26 10:19:04;;;;;;;4.03;1.20;;;;;;;;;;5070740;28;20630;-59
2023/06/26 10:21:30;;;;;;;7.68;1.50;;;;;;;;;;5056007;28;20206;-60
2023/06/26 10:23:56;;;;;;;7.03;1.55;;;;;;;;;;5072681;28;20209;-60
2023/06/26 10:26:22;;;;;;;4.32;1.40;;;;;;;;;;5072430;28;20737;-60
2023/06/26 10:28:49;;;;;;;4.97;1.30;;;;;;;;;;5073517;28;20337;-60
2023/06/26 10:31:15;;;;;;;3.95;1.20;;;;;;;;;;5054868;28;20245;-60
2023/06/26 10:33:40;;;;;;;6.13;1.30;;;;;;;;;;5055371;28;20211;-60
2023/06/26 10:36:18;;;;;;;6.03;1.48;;;;;;;;;;5053010;28;20294;-60
2023/06/26 10:38:48;;;;;;;6.80;1.30;;;;;;;;;;5034856;28;20268;-60
2023/06/26 10:41:15;;;;;;;5.72;1.25;;;;;;;;;;5070986;28;20207;-60
2023/06/26 10:43:41;;;;;;;5.80;1.48;;;;;;;;;;5065222;28;20301;-60
2023/06/26 10:46:06;;;;;;;6.07;1.42;;;;;;;;;;5034034;28;20349;-61
2023/06/26 10:48:31;;;;;;;3.97;1.42;;;;;;;;;;5035211;28;20215;-60
2023/06/26 10:50:57;;;;;;;4.75;1.48;;;;;;;;;;5051760;28;20739;-60
2023/06/26 10:53:27;;;;;;;5.38;1.42;;;;;;;;;;5052490;28;20682;-60
2023/06/26 10:55:56;;;;;;;6.40;1.40;;;;;;;;;;5062741;28;20222;-60
2023/06/26 10:58:29;;;;;;;5.88;1.38;;;;;;;;;;5071618;28;20261;-60
2023/06/26 11:01:21;;;;;;;4.63;1.20;;;;;;;;;;5072763;28;20708;-60
2023/06/26 11:04:02;;;;;;;2.55;1.20;;;;;;;;;;5071929;28;20709;-60
2023/06/26 11:06:28;;;;;;;4.70;1.30;;;;;;;;;;5071521;28;20306;-60
2023/06/26 11:08:54;;;;;;;5.00;1.38;;;;;;;;;;5064707;28;20214;-60
2023/06/26 11:11:20;;;;;;;2.88;1.23;;;;;;;;;;5034440;28;20567;-60
2023/06/26 11:13:46;;;;;;;3.90;1.27;;;;;;;;;;5034155;28;20576;-60
2023/06/26 11:16:12;;;;;;;4.28;1.00;;;;;;;;;;5051836;28;20218;-60
2023/06/26 11:18:37;;;;;;;3.50;1.00;;;;;;;;;;5055079;28;20215;-60
2023/06/26 11:21:09;;;;;;;5.85;1.20;;;;;;;;;;5051330;28;20218;-61
2023/06/26 11:23:35;;;;;;;3.83;1.40;;;;;;;;;;5052415;28;20294;-60
2023/06/26 11:26:13;;;;;;;4.95;1.30;;;;;;;;;;5033326;28;20345;-60
2023/06/26 11:28:38;;;;;;;7.28;2.00;;;;;;;;;;5052243;28;20219;-59
2023/06/26 11:31:04;;;;;;;4.85;1.40;;;;;;;;;;5051866;28;20261;-60
2023/06/26 11:33:29;;;;;;;5.60;1.25;;;;;;;;;;5051277;28;20214;-60
2023/06/26 11:35:55;;;;;;;3.92;1.45;;;;;;;;;;5052250;28;20217;-60
2023/06/26 11:38:21;;;;;;;4.82;1.20;;;;;;;;;;5051658;28;20215;-60
2023/06/26 11:40:46;;;;;;;4.40;1.30;;;;;;;;;;5051395;28;20211;-60
2023/06/26 11:43:11;;;;;;;3.35;1.10;;;;;;;;;;5033725;28;20222;-60
2023/06/26 11:45:37;;;;;;;3.83;1.13;;;;;;;;;;5034104;28;20237;-60
2023/06/26 11:48:02;;;;;;;4.20;1.35;;;;;;;;;;5050646;28;20681;-60
2023/06/26 11:50:28;;;;;;;4.20;1.33;;;;;;;;;;5034071;28;20230;-60
2023/06/26 11:52:55;;;;;;;4.43;1.10;;;;;;;;;;5052024;28;20688;-60
2023/06/26 11:55:21;;;;;;;4.68;1.27;;;;;;;;;;5055947;28;20218;-61
2023/06/26 11:57:48;;;;;;;4.95;1.45;;;;;;;;;;5071811;28;20355;-60
2023/06/26 12:00:14;;;;;;;3.67;1.30;;;;;;;;;;5069513;28;20218;-60
2023/06/26 12:02:39;;;;;;;2.40;1.10;;;;;;;;;;5062848;28;20604;-60
2023/06/26 12:05:05;;;;;;;5.03;1.27;;;;;;;;;;5071284;28;20261;-60
2023/06/26 12:07:31;;;;;;;6.63;1.45;;;;;;;;;;5054031;28;20646;-60
2023/06/26 12:09:58;;;;;;;5.20;1.30;;;;;;;;;;5054338;28;20266;-60
2023/06/26 12:12:23;;;;;;;8.55;1.30;;;;;;;;;;5051138;28;20231;-60
2023/06/26 12:14:48;;;;;;;4.85;1.40;;;;;;;;;;5051653;28;20234;-60
2023/06/26 12:17:14;;;;;;;4.05;1.10;;;;;;;;;;5065193;28;20237;-60
2023/06/26 12:19:42;;;;;;;5.07;1.80;;;;;;;;;;5069822;28;20301;-60
2023/06/26 12:22:08;;;;;;;4.15;1.30;;;;;;;;;;5052162;28;20219;-60
2023/06/26 12:24:33;;;;;;;4.45;1.20;;;;;;;;;;5070793;28;20232;-60
2023/06/26 12:26:59;;;;;;;5.55;1.42;;;;;;;;;;5053416;28;20230;-60
2023/06/26 12:29:29;;;;;;;4.35;1.40;;;;;;;;;;5070380;28;20206;-60
2023/06/26 12:31:55;;;;;;;4.28;1.15;;;;;;;;;;5053195;28;20206;-60
2023/06/26 12:34:21;;;;;;;4.25;1.10;;;;;;;;;;5070980;28;20701;-60
2023/06/26 12:36:48;;;;;;;4.68;1.20;;;;;;;;;;5070794;28;20206;-60
2023/06/26 12:39:15;;;;;;;3.80;1.30;;;;;;;;;;5069835;28;20215;-60
2023/06/26 12:41:45;;;;;;;3.15;1.15;;;;;;;;;;5051184;28;20590;-60
2023/06/26 12:44:19;;;;;;;3.70;1.13;;;;;;;;;;5050068;28;20618;-60
2023/06/26 12:46:46;;;;;;;4.65;1.30;;;;;;;;;;5033188;28;20732;-60
2023/06/26 12:49:12;;;;;;;3.03;1.20;;;;;;;;;;5050896;28;20207;-60
2023/06/26 12:51:37;;;;;;;4.97;1.40;;;;;;;;;;5054811;28;20308;-60
2023/06/26 12:54:03;;;;;;;3.58;1.10;;;;;;;;;;5054784;28;20206;-60
2023/06/26 12:56:28;;;;;;;4.47;1.20;;;;;;;;;;5069573;28;20214;-61
2023/06/26 12:58:53;;;;;;;5.40;1.20;;;;;;;;;;5074234;28;20206;-61
2023/06/26 13:01:19;;;;;;;4.13;1.10;;;;;;;;;;5073969;28;20218;-60
2023/06/26 13:03:45;;;;;;;3.50;1.25;;;;;;;;;;5074753;28;20425;-60
2023/06/26 13:06:10;;;;;;;4.22;0.90;;;;;;;;;;5073619;28;20715;-60
2023/06/26 13:08:36;;;;;;;4.75;1.30;;;;;;;;;;5069476;28;20269;-60
2023/06/26 13:11:02;;;;;;;4.72;1.00;;;;;;;;;;5054505;28;20211;-60
2023/06/26 13:13:27;;;;;;;3.45;1.00;;;;;;;;;;5054327;28;20221;-60
2023/06/26 13:15:53;;;;;;;2.55;1.08;;;;;;;;;;5067346;28;20302;-60
2023/06/26 13:18:18;;;;;;;2.15;0.90;;;;;;;;;;5071411;28;20584;-60
2023/06/26 13:20:43;;;;;;;3.17;1.10;;;;;;;;;;5073999;28;20228;-60
2023/06/26 13:23:09;;;;;;;3.78;1.35;;;;;;;;;;5074171;28;20305;-60
2023/06/26 13:25:34;;;;;;;4.28;1.00;;;;;;;;;;5073912;28;20268;-61
2023/06/26 13:27:59;;;;;;;2.70;0.93;;;;;;;;;;5074561;28;20703;-60
2023/06/26 13:30:25;;;;;;;5.30;1.10;;;;;;;;;;5074258;28;20217;-60
2023/06/26 13:32:50;;;;;;;5.53;1.20;;;;;;;;;;5073559;28;20218;-60
2023/06/26 13:35:15;;;;;;;5.95;1.00;;;;;;;;;;5074128;28;20206;-60
2023/06/26 13:37:41;;;;;;;3.55;1.00;;;;;;;;;;5074551;28;20282;-60
2023/06/26 13:40:07;;;;;;;3.00;0.90;;;;;;;;;;5073064;28;20696;-60
2023/06/26 13:42:32;;;;;;;2.75;1.02;;;;;;;;;;5074020;28;20465;-60
2023/06/26 13:44:58;;;;;;;2.72;1.02;;;;;;;;;;5074517;28;20207;-60
2023/06/26 13:47:23;;;;;;;3.47;0.90;;;;;;;;;;5072518;28;20296;-59
2023/06/26 13:49:48;;;;;;;3.25;0.82;;;;;;;;;;5074072;28;20214;-60
2023/06/26 13:52:13;;;;;;;4.13;0.90;;;;;;;;;;5054191;28;20635;-61
2023/06/26 13:54:40;;;;;;;2.70;0.90;;;;;;;;;;5053648;28;20242;-61
2023/06/26 13:57:05;;;;;;;4.85;0.95;;;;;;;;;;5073415;28;20211;-61
2023/06/26 13:59:31;;;;;;;2.25;0.90;;;;;;;;;;5074358;28;20228;-60
2023/06/26 14:01:56;;;;;;;3.35;0.90;;;;;;;;;;5071737;28;20751;-59
2023/06/26 14:04:22;;;;;;;2.72;1.20;;;;;;;;;;5073543;28;20222;-60
2023/06/26 14:06:47;;;;;;;4.60;1.23;;;;;;;;;;5073868;28;20258;-59
2023/06/26 14:09:12;;;;;;;7.38;1.23;;;;;;;;;;5062131;28;20211;-60
2023/06/26 14:11:38;;;;;;;2.75;0.93;;;;;;;;;;5054057;28;20533;-60
2023/06/26 14:14:03;;;;;;;4.20;1.10;;;;;;;;;;5053078;28;20298;-60
2023/06/26 14:16:29;;;;;;;2.97;0.90;;;;;;;;;;5054530;28;20295;-59
2023/06/26 14:18:55;;;;;;;3.67;0.93;;;;;;;;;;5054342;28;20215;-59
2023/06/26 14:21:20;;;;;;;2.90;0.80;;;;;;;;;;5053299;28;20227;-60
2023/06/26 14:23:45;;;;;;;4.35;1.08;;;;;;;;;;5052899;28;20290;-60
2023/06/26 14:26:11;;;;;;;4.25;1.10;;;;;;;;;;5052918;28;20296;-59
2023/06/26 14:28:36;;;;;;;2.63;0.90;;;;;;;;;;5053478;28;20276;-60
2023/06/26 14:31:02;;;;;;;2.83;1.00;;;;;;;;;;5052201;28;20215;-60